Дата Пункты Температура Давл., мм. Влажн., % Ветер Погодные явления
Воздуха Воды Направл. Скорость
18.07.15 05:00 Одесса 21.0 20.0 758 74 З 2 06 часов
18.07.15 02:00 Одесса 22.0 20.0 758 68 З 3 03 часа
17.07.15 08:00 Одесса 25.0 20.0 759 64 Пд-З 3 21 час
17.07.15 05:00 Одесса 24.0 21.0 760 77 Пд 2 18 часов
17.07.15 02:00 Одесса 25.0 21.0 760 57 Пд-З 2 15 часов
17.07.15 11:00 Одесса 28.0 20.0 761 44 Пн 2 12 часов
17.07.15 08:00 Одесса 24.0 20.0 761 60 Пн-З 1 09 часов
17.07.15 05:00 Одесса 18.0 21.0 761 79 З 2 06 часов
17.07.15 02:00 Одесса 18.0 21.0 760 91 З 1 03 часа
16.07.15 08:00 Одесса 21.0 21.0 760 69 З 1 21 час
16.07.15 05:00 Одесса 24.0 20.0 760 60 Пд 2 18 часов
16.07.15 02:00 Одесса 25.0 20.0 760 59 Пд 3 15 часов
16.07.15 11:00 Одесса 24.0 20.0 760 61 Пн-С 2 12 часов
16.07.15 08:00 Одесса 22.0 20.0 760 78 З 1 09 часов
16.07.15 05:00 Одесса 17.0 20.0 759 93 З 2 06 часов
16.07.15 02:00 Одесса 17.0 20.0 759 98 Пн-З 2 03 часа
15.07.15 08:00 Одесса 19.0 20.0 757 96 Пд-З 2 21 час
15.07.15 05:00 Одесса 25.0 20.0 756 66 Пд-З 1 18 часов
15.07.15 02:00 Одесса 25.0 20.0 756 64 Пд-З 3 15 часов
15.07.15 11:00 Одесса 27.0 19.0 757 54 Пн 2 12 часов
Количество строк
351 352 353 354 355 356 357 358 359 360
Page 360 of 472